createdAt,value
2018-09-28T00:01:54.186Z,72.60
2018-09-28T00:06:56.338Z,73.20
2018-09-28T00:11:58.491Z,73.50
2018-09-28T00:17:00.645Z,74.50
2018-09-28T00:22:02.785Z,74.50
2018-09-28T00:27:04.938Z,75.50
2018-09-28T00:32:07.070Z,76.40
2018-09-28T00:37:09.233Z,77.20
2018-09-28T00:42:11.390Z,77.60
2018-09-28T00:47:13.517Z,76.80
2018-09-28T00:52:15.646Z,78.50
2018-09-28T00:57:18.097Z,78.30
2018-09-28T01:02:20.235Z,78.00
2018-09-28T01:07:22.370Z,78.80
2018-09-28T01:12:24.542Z,79.30
2018-09-28T01:17:26.674Z,79.20
2018-09-28T01:22:28.801Z,80.00
2018-09-28T01:27:37.680Z,80.10
2018-09-28T01:32:39.821Z,81.00
2018-09-28T01:37:41.937Z,81.80
2018-09-28T01:42:44.069Z,82.50
2018-09-28T01:47:46.274Z,82.80
2018-09-28T01:52:48.413Z,84.00
2018-09-28T01:57:50.566Z,84.60
2018-09-28T02:02:52.705Z,85.00
2018-09-28T02:07:54.853Z,86.30
2018-09-28T02:12:57.008Z,88.70
2018-09-28T02:18:06.149Z,89.10
2018-09-28T02:23:08.293Z,91.30
2018-09-28T02:28:10.431Z,89.70
2018-09-28T02:33:12.566Z,91.80
2018-09-28T02:38:14.724Z,89.30
2018-09-28T02:43:16.902Z,89.30
2018-09-28T02:48:19.046Z,89.00
2018-09-28T02:53:21.174Z,90.10
2018-09-28T02:58:23.342Z,94.00
2018-09-28T03:03:25.483Z,93.80
2018-09-28T03:08:27.630Z,93.50
2018-09-28T03:13:29.773Z,93.30
2018-09-28T03:18:31.906Z,93.30
2018-09-28T03:23:34.165Z,93.00
2018-09-28T03:28:36.310Z,95.30
2018-09-28T03:33:38.454Z,95.60
2018-09-28T03:38:40.634Z,96.70
2018-09-28T03:43:42.769Z,96.80
2018-09-28T03:48:44.914Z,97.20
2018-09-28T03:53:47.066Z,96.60
2018-09-28T03:58:49.247Z,99.00
2018-09-28T04:03:51.349Z,99.90
2018-09-28T04:08:53.494Z,99.90
2018-09-28T04:13:55.666Z,99.90
2018-09-28T04:18:57.837Z,99.90
2018-09-28T04:24:00.011Z,99.40
2018-09-28T04:29:02.177Z,98.00
2018-09-28T04:34:04.346Z,98.00
2018-09-28T04:39:06.582Z,98.40
2018-09-28T04:44:08.805Z,97.40
2018-09-28T04:49:10.991Z,99.30
2018-09-28T04:54:13.158Z,99.90
2018-09-28T04:59:15.326Z,99.90
2018-09-28T05:04:17.474Z,99.90
2018-09-28T05:09:19.605Z,99.90
2018-09-28T05:14:21.941Z,99.90
2018-09-28T05:19:24.196Z,99.90
2018-09-28T05:24:26.319Z,99.90
2018-09-28T05:29:28.469Z,99.90
2018-09-28T05:34:30.906Z,99.90
2018-09-28T05:39:33.196Z,99.90
2018-09-28T05:44:35.265Z,99.90
2018-09-28T05:49:37.421Z,99.90
2018-09-28T05:54:39.590Z,99.90
2018-09-28T05:59:47.427Z,99.90
2018-09-28T06:04:55.330Z,98.90
2018-09-28T06:09:57.486Z,96.20
2018-09-28T06:14:59.664Z,92.10
2018-09-28T06:20:01.830Z,90.30
2018-09-28T06:25:04.005Z,87.80
2018-09-28T06:30:06.259Z,84.30
2018-09-28T06:35:08.410Z,83.70
2018-09-28T06:40:10.594Z,79.10
2018-09-28T06:45:12.746Z,77.00
2018-09-28T06:50:14.949Z,75.00
2018-09-28T06:55:17.106Z,72.40
2018-09-28T07:00:19.334Z,70.50
2018-09-28T07:05:21.413Z,68.50
2018-09-28T07:10:23.557Z,65.70
2018-09-28T07:15:25.718Z,64.60
2018-09-28T07:20:27.905Z,64.70
2018-09-28T07:25:30.022Z,61.80
2018-09-28T07:30:32.166Z,61.10
2018-09-28T07:35:34.302Z,59.60
2018-09-28T07:40:36.477Z,58.20
2018-09-28T07:45:38.642Z,56.60
2018-09-28T07:50:40.798Z,56.40
2018-09-28T07:55:42.976Z,54.10
2018-09-28T08:00:45.095Z,51.50
2018-09-28T08:05:47.278Z,51.20
2018-09-28T08:10:49.540Z,48.70
2018-09-28T08:15:51.789Z,46.90
2018-09-28T08:20:53.938Z,45.10
2018-09-28T08:25:56.082Z,44.10
2018-09-28T08:30:58.222Z,44.50
2018-09-28T08:36:00.373Z,42.50
2018-09-28T08:41:02.502Z,43.50
2018-09-28T08:46:04.660Z,42.70
2018-09-28T08:51:07.126Z,39.80
2018-09-28T08:56:09.337Z,39.60
2018-09-28T09:01:11.486Z,40.20
2018-09-28T09:06:13.617Z,37.10
2018-09-28T09:11:15.750Z,38.00
2018-09-28T09:16:17.902Z,37.40
2018-09-28T09:21:20.032Z,34.80
2018-09-28T09:26:22.173Z,34.50
2018-09-28T09:31:24.349Z,33.20
2018-09-28T09:36:26.531Z,34.10
2018-09-28T09:41:28.642Z,33.70
2018-09-28T09:46:30.789Z,34.30
2018-09-28T09:51:33.033Z,31.90
2018-09-28T09:56:35.173Z,31.10
2018-09-28T10:01:42.982Z,32.30
2018-09-28T10:06:45.106Z,32.50
2018-09-28T10:11:47.234Z,33.80
2018-09-28T10:16:49.358Z,36.30
2018-09-28T10:21:51.486Z,36.40
2018-09-28T10:26:53.652Z,35.40
2018-09-28T10:31:55.773Z,36.80
2018-09-28T10:36:57.910Z,37.60
2018-09-28T10:42:00.081Z,36.50
2018-09-28T10:47:02.245Z,33.70
2018-09-28T10:52:04.479Z,34.10
2018-09-28T10:57:07.764Z,33.30
2018-09-28T11:02:09.856Z,33.60
2018-09-28T11:07:11.987Z,32.00
2018-09-28T11:12:14.122Z,32.30
2018-09-28T11:17:16.273Z,32.30
2018-09-28T11:22:18.418Z,32.80
2018-09-28T11:27:20.572Z,33.20
2018-09-28T11:32:22.718Z,31.30
2018-09-28T11:37:24.866Z,32.30
2018-09-28T11:42:27.014Z,33.00
2018-09-28T11:47:29.283Z,31.70
2018-09-28T11:52:31.529Z,30.00
2018-09-28T11:57:33.666Z,30.20
2018-09-28T12:02:35.832Z,29.70
2018-09-28T12:07:37.970Z,28.50
2018-09-28T12:12:40.145Z,26.90
2018-09-28T12:17:42.292Z,26.70
2018-09-28T12:22:44.438Z,25.60
2018-09-28T12:27:46.624Z,26.40
2018-09-28T12:32:48.913Z,25.60
2018-09-28T12:37:53.013Z,26.30
2018-09-28T12:42:55.313Z,24.80
2018-09-28T12:47:57.479Z,25.30
2018-09-28T12:52:59.626Z,26.30
2018-09-28T12:58:01.784Z,26.90
2018-09-28T13:03:03.930Z,27.20
2018-09-28T13:08:06.150Z,26.70
2018-09-28T13:13:08.257Z,28.30
2018-09-28T13:18:10.413Z,27.70
2018-09-28T13:23:12.705Z,28.50
2018-09-28T13:28:14.858Z,27.40
2018-09-28T13:33:16.998Z,27.10
2018-09-28T13:38:19.180Z,24.70
2018-09-28T13:43:21.321Z,25.00
2018-09-28T13:48:23.523Z,27.50
2018-09-28T13:53:25.582Z,30.70
2018-09-28T13:58:27.725Z,32.70
2018-09-28T14:03:29.865Z,34.90
2018-09-28T14:08:32.009Z,34.00
2018-09-28T14:13:34.177Z,37.30
2018-09-28T14:18:36.379Z,40.20
2018-09-28T14:23:38.458Z,41.30
2018-09-28T14:28:40.679Z,45.60
2018-09-28T14:33:42.909Z,47.60
2018-09-28T14:38:45.064Z,49.00
2018-09-28T14:43:47.206Z,50.00
2018-09-28T14:48:49.571Z,51.50
2018-09-28T14:53:51.541Z,53.70
2018-09-28T14:58:53.725Z,55.00
2018-09-28T15:03:56.086Z,56.60
2018-09-28T15:08:58.230Z,57.50
2018-09-28T15:14:00.402Z,57.70
2018-09-28T15:19:02.756Z,58.10
2018-09-28T15:24:05.035Z,58.60
2018-09-28T15:29:07.446Z,59.20
2018-09-28T15:34:10.114Z,59.30
2018-09-28T15:39:13.170Z,59.40
2018-09-28T15:44:15.370Z,59.40
2018-09-28T15:49:17.608Z,59.80
2018-09-28T15:54:19.890Z,59.60
2018-09-28T15:59:22.085Z,59.70
2018-09-28T16:04:24.535Z,59.80
2018-09-28T16:09:26.730Z,59.70
2018-09-28T16:14:28.893Z,60.00
2018-09-28T16:19:31.100Z,61.00
2018-09-28T16:24:33.774Z,65.10
2018-09-28T16:29:35.934Z,69.90
2018-09-28T16:34:38.188Z,71.50
2018-09-28T16:39:40.399Z,72.70
2018-09-28T16:44:42.605Z,75.60
2018-09-28T16:49:44.818Z,74.80
2018-09-28T16:54:46.967Z,72.80
2018-09-28T16:59:49.126Z,72.10
2018-09-28T17:04:51.343Z,69.10
2018-09-28T17:09:53.528Z,68.00
2018-09-28T17:14:55.769Z,67.60
2018-09-28T17:19:57.997Z,66.20
2018-09-28T17:25:00.201Z,66.30
2018-09-28T17:30:02.464Z,63.40
2018-09-28T17:35:04.821Z,61.40
2018-09-28T17:40:07.592Z,60.10
2018-09-28T17:45:09.862Z,58.30
2018-09-28T17:50:12.066Z,57.10
2018-09-28T17:55:14.238Z,54.40
2018-09-28T18:00:16.466Z,53.30
2018-09-28T18:05:18.766Z,51.70
2018-09-28T18:10:20.969Z,50.20
2018-09-28T18:15:23.146Z,50.00
2018-09-28T18:20:25.322Z,48.70
2018-09-28T18:25:27.450Z,48.50
2018-09-28T18:30:29.629Z,48.00
2018-09-28T18:35:41.259Z,47.80
2018-09-28T18:40:43.897Z,47.40
2018-09-28T18:45:46.861Z,47.30
2018-09-28T18:50:48.997Z,47.00
2018-09-28T18:55:51.165Z,46.90
2018-09-28T19:00:53.445Z,46.80
2018-09-28T19:05:55.712Z,47.20
2018-09-28T19:10:57.785Z,47.20
2018-09-28T19:15:59.930Z,47.70
2018-09-28T19:21:02.101Z,47.40
2018-09-28T19:26:04.403Z,47.60
2018-09-28T19:31:06.561Z,47.80
2018-09-28T19:36:08.751Z,47.60
2018-09-28T19:41:10.918Z,47.60
2018-09-28T19:46:13.108Z,47.90
2018-09-28T19:51:15.270Z,48.10
2018-09-28T19:56:17.424Z,47.90
2018-09-28T20:01:19.573Z,48.30
2018-09-28T20:06:21.781Z,48.60
2018-09-28T20:11:23.918Z,49.30
2018-09-28T20:16:26.085Z,49.70
2018-09-28T20:21:28.598Z,50.50
2018-09-28T20:26:30.750Z,51.00
2018-09-28T20:31:32.946Z,51.70
2018-09-28T20:36:35.107Z,52.10
2018-09-28T20:41:37.301Z,52.80
2018-09-28T20:46:39.466Z,53.40
2018-09-28T20:51:42.456Z,53.90
2018-09-28T20:56:44.618Z,54.50
2018-09-28T21:01:46.809Z,55.10
2018-09-28T21:06:48.957Z,55.90
2018-09-28T21:11:51.134Z,56.20
2018-09-28T21:16:53.274Z,57.00
2018-09-28T21:21:55.413Z,57.60
2018-09-28T21:26:57.549Z,58.10
2018-09-28T21:31:59.697Z,58.40
2018-09-28T21:37:01.845Z,58.70
2018-09-28T21:42:03.986Z,59.30
2018-09-28T21:47:06.197Z,59.80
2018-09-28T21:52:08.343Z,60.30
2018-09-28T21:57:10.481Z,60.80
2018-09-28T22:02:12.638Z,61.30
2018-09-28T22:07:14.895Z,62.00
2018-09-28T22:12:17.050Z,62.80
2018-09-28T22:17:19.226Z,63.40
2018-09-28T22:22:21.385Z,64.30
2018-09-28T22:27:23.653Z,64.60
2018-09-28T22:32:25.802Z,65.20
2018-09-28T22:37:27.929Z,65.70
2018-09-28T22:42:30.098Z,65.60
2018-09-28T22:47:32.269Z,66.00
2018-09-28T22:52:34.558Z,65.60
2018-09-28T22:57:36.946Z,66.20
2018-09-28T23:07:48.030Z,66.70
2018-09-28T23:12:50.202Z,67.20
2018-09-28T23:17:52.347Z,66.80
2018-09-28T23:22:54.506Z,67.80
2018-09-28T23:27:56.658Z,66.60
2018-09-28T23:32:58.839Z,66.30
2018-09-28T23:38:00.970Z,66.30
2018-09-28T23:43:03.194Z,65.20
2018-09-28T23:48:05.604Z,65.10
2018-09-28T23:53:07.746Z,65.20
2018-09-28T23:58:09.914Z,65.40
